Time;durP1;ratioP1;P1;durP2;ratioP2;P2;SDS_P1;SDS_P2;PMS_P1;PMS_P2;Temp;Humidity;BMP_temperature;BMP_pressure;BME280_temperature;BME280_humidity;BME280_pressure;Samples;Min_cycle;Max_cycle;Signal;HPM_P1;HPM_P2
2021/05/15 00:02:10;;;;;;;13.98;9.02;;;;;;;;;;5052195;28;20075;-65
2021/05/15 00:04:36;;;;;;;10.93;7.72;;;;;;;;;;5052945;28;20029;-65
2021/05/15 00:07:02;;;;;;;11.32;7.85;;;;;;;;;;5053241;28;20021;-66
2021/05/15 00:09:28;;;;;;;11.65;7.90;;;;;;;;;;5051866;28;20059;-66
2021/05/15 00:11:54;;;;;;;11.15;7.63;;;;;;;;;;5053050;28;20479;-65
2021/05/15 00:14:20;;;;;;;11.20;7.97;;;;;;;;;;5052773;28;20459;-66
2021/05/15 00:16:46;;;;;;;11.07;7.28;;;;;;;;;;5052412;28;20025;-65
2021/05/15 00:19:12;;;;;;;12.90;8.18;;;;;;;;;;5053180;28;20221;-65
2021/05/15 00:21:39;;;;;;;11.15;8.00;;;;;;;;;;5053174;28;20033;-66
2021/05/15 00:24:05;;;;;;;12.60;7.75;;;;;;;;;;5083774;28;20024;-65
2021/05/15 00:26:32;;;;;;;11.63;7.93;;;;;;;;;;5093180;28;20393;-66
2021/05/15 00:28:58;;;;;;;10.57;7.50;;;;;;;;;;5091972;28;20046;-65
2021/05/15 00:31:24;;;;;;;10.38;7.47;;;;;;;;;;5091624;28;20032;-66
2021/05/15 00:33:50;;;;;;;9.25;6.80;;;;;;;;;;5092628;28;20020;-66
2021/05/15 00:36:16;;;;;;;10.73;7.38;;;;;;;;;;5093016;28;20028;-66
2021/05/15 00:38:42;;;;;;;14.52;7.90;;;;;;;;;;5090989;28;20035;-65
2021/05/15 00:41:09;;;;;;;10.02;7.50;;;;;;;;;;5077498;28;20352;-65
2021/05/15 00:43:35;;;;;;;13.43;8.27;;;;;;;;;;5072258;28;20520;-66
2021/05/15 00:46:01;;;;;;;9.43;6.70;;;;;;;;;;5071275;28;20029;-66
2021/05/15 00:48:27;;;;;;;8.35;6.57;;;;;;;;;;5072410;28;20020;-65
2021/05/15 00:50:53;;;;;;;6.95;5.88;;;;;;;;;;5071787;28;20024;-66
2021/05/15 00:53:20;;;;;;;8.63;6.80;;;;;;;;;;5070852;28;20071;-65
2021/05/15 00:55:46;;;;;;;8.57;6.28;;;;;;;;;;5072006;28;20021;-66
2021/05/15 00:58:13;;;;;;;8.15;6.43;;;;;;;;;;5071752;28;20060;-66
2021/05/15 01:00:39;;;;;;;8.07;6.53;;;;;;;;;;5070702;28;20033;-65
2021/05/15 01:03:05;;;;;;;8.88;6.72;;;;;;;;;;5070249;28;20068;-66
2021/05/15 01:05:31;;;;;;;8.82;6.50;;;;;;;;;;5071929;28;20040;-66
2021/05/15 01:07:57;;;;;;;8.20;5.82;;;;;;;;;;5070745;28;20059;-66
2021/05/15 01:10:23;;;;;;;9.52;6.45;;;;;;;;;;5071181;28;20032;-65
2021/05/15 01:12:57;;;;;;;11.30;7.10;;;;;;;;;;5071344;28;20525;-66
2021/05/15 01:15:27;;;;;;;8.93;6.13;;;;;;;;;;5070646;28;20031;-66
2021/05/15 01:17:57;;;;;;;7.68;5.80;;;;;;;;;;5072198;28;20032;-66
2021/05/15 01:20:23;;;;;;;6.68;5.25;;;;;;;;;;5071418;28;20046;-66
2021/05/15 01:22:49;;;;;;;8.05;5.80;;;;;;;;;;5076735;28;20032;-66
2021/05/15 01:25:16;;;;;;;7.78;5.53;;;;;;;;;;5091222;28;20024;-65
2021/05/15 01:27:42;;;;;;;5.40;4.60;;;;;;;;;;5091857;28;20024;-66
2021/05/15 01:30:08;;;;;;;6.82;4.68;;;;;;;;;;5090196;28;20089;-65
2021/05/15 01:32:36;;;;;;;6.63;4.90;;;;;;;;;;5091654;28;20027;-66
2021/05/15 01:35:03;;;;;;;9.80;5.03;;;;;;;;;;5091674;28;20024;-66
2021/05/15 01:37:29;;;;;;;8.45;5.40;;;;;;;;;;5090558;28;20045;-66
2021/05/15 01:39:55;;;;;;;14.20;8.40;;;;;;;;;;5086598;28;20025;-66
2021/05/15 01:42:21;;;;;;;17.10;9.63;;;;;;;;;;5057674;28;20033;-65
2021/05/15 01:44:48;;;;;;;14.32;7.72;;;;;;;;;;5049089;28;20059;-66
2021/05/15 01:47:14;;;;;;;13.48;8.55;;;;;;;;;;5048997;28;20028;-66
2021/05/15 01:49:40;;;;;;;11.98;7.30;;;;;;;;;;5070860;28;20074;-66
2021/05/15 01:52:06;;;;;;;13.50;8.05;;;;;;;;;;5069909;28;20063;-66
2021/05/15 01:54:32;;;;;;;9.63;6.47;;;;;;;;;;5070558;28;20101;-66
2021/05/15 01:56:58;;;;;;;9.57;6.40;;;;;;;;;;5070430;28;20040;-66
2021/05/15 01:59:24;;;;;;;10.30;6.32;;;;;;;;;;5069331;28;20024;-66
2021/05/15 02:01:50;;;;;;;8.52;5.78;;;;;;;;;;5069874;28;20164;-65
2021/05/15 02:04:16;;;;;;;7.13;5.18;;;;;;;;;;5067282;28;20027;-65
2021/05/15 02:06:43;;;;;;;10.10;5.70;;;;;;;;;;5070879;28;20040;-66
2021/05/15 02:09:09;;;;;;;10.18;6.07;;;;;;;;;;5070076;28;20024;-65
2021/05/15 02:11:35;;;;;;;10.73;6.18;;;;;;;;;;5069587;28;20027;-66
2021/05/15 02:14:01;;;;;;;10.80;6.40;;;;;;;;;;5070644;28;20154;-66
2021/05/15 02:16:27;;;;;;;9.85;6.80;;;;;;;;;;5071100;28;20033;-66
2021/05/15 02:18:54;;;;;;;11.57;6.70;;;;;;;;;;5069099;28;20103;-66
2021/05/15 02:21:20;;;;;;;8.65;6.32;;;;;;;;;;5066565;28;20075;-66
2021/05/15 02:23:46;;;;;;;11.55;7.25;;;;;;;;;;5084512;28;20028;-66
2021/05/15 02:26:12;;;;;;;11.15;7.40;;;;;;;;;;5091305;28;20103;-65
2021/05/15 02:28:38;;;;;;;11.55;7.28;;;;;;;;;;5090159;28;20027;-66
2021/05/15 02:31:04;;;;;;;12.13;7.13;;;;;;;;;;5090005;28;20111;-66
2021/05/15 02:33:30;;;;;;;12.38;8.43;;;;;;;;;;5090346;28;20028;-66
2021/05/15 02:35:56;;;;;;;12.82;8.57;;;;;;;;;;5089200;28;20501;-66
2021/05/15 02:38:22;;;;;;;12.75;8.30;;;;;;;;;;5090806;28;20024;-66
2021/05/15 02:40:49;;;;;;;13.93;9.27;;;;;;;;;;5078477;28;20028;-66
2021/05/15 02:43:15;;;;;;;14.73;8.70;;;;;;;;;;5068937;28;20040;-65
2021/05/15 02:45:41;;;;;;;13.70;9.05;;;;;;;;;;5070298;28;20043;-66
2021/05/15 02:48:07;;;;;;;17.38;9.90;;;;;;;;;;5070775;28;20032;-65
2021/05/15 02:50:33;;;;;;;12.95;8.38;;;;;;;;;;5068954;28;20029;-65
2021/05/15 02:52:59;;;;;;;24.27;15.57;;;;;;;;;;5070100;28;20028;-65
2021/05/15 02:55:25;;;;;;;21.75;12.35;;;;;;;;;;5069986;28;20043;-66
2021/05/15 02:57:53;;;;;;;16.45;10.25;;;;;;;;;;5069339;28;20036;-66
2021/05/15 03:00:23;;;;;;;13.93;8.35;;;;;;;;;;5070140;28;20392;-66
2021/05/15 03:02:49;;;;;;;17.55;9.75;;;;;;;;;;5070616;28;20067;-65
2021/05/15 03:05:15;;;;;;;16.38;9.70;;;;;;;;;;5069127;28;20024;-66
2021/05/15 03:07:42;;;;;;;18.38;11.07;;;;;;;;;;5069762;28;20024;-66
2021/05/15 03:10:08;;;;;;;18.50;11.40;;;;;;;;;;5070439;28;20024;-66
2021/05/15 03:12:34;;;;;;;23.00;13.50;;;;;;;;;;5069415;28;20393;-65
2021/05/15 03:15:00;;;;;;;20.20;12.60;;;;;;;;;;5070098;28;20540;-66
2021/05/15 03:17:26;;;;;;;20.55;13.05;;;;;;;;;;5070363;28;20028;-66
2021/05/15 03:19:53;;;;;;;23.20;13.40;;;;;;;;;;5069234;28;20035;-66
2021/05/15 03:22:22;;;;;;;25.40;15.60;;;;;;;;;;5075336;28;20028;-66
2021/05/15 03:24:48;;;;;;;24.80;15.73;;;;;;;;;;5093605;28;20036;-66
2021/05/15 03:27:14;;;;;;;20.35;12.90;;;;;;;;;;5093103;28;20028;-66
2021/05/15 03:29:41;;;;;;;17.38;10.32;;;;;;;;;;5093889;28;20027;-66
2021/05/15 03:32:07;;;;;;;27.65;10.45;;;;;;;;;;5094121;28;20081;-65
2021/05/15 03:34:33;;;;;;;39.17;10.00;;;;;;;;;;5092347;28;20032;-66
2021/05/15 03:36:59;;;;;;;161.10;13.20;;;;;;;;;;5092269;28;20024;-66
2021/05/15 03:39:25;;;;;;;57.30;9.77;;;;;;;;;;5092807;28;20024;-66
2021/05/15 03:41:52;;;;;;;87.40;10.98;;;;;;;;;;5072076;28;20052;-66
2021/05/15 03:44:18;;;;;;;80.35;10.98;;;;;;;;;;5073409;28;20397;-66
2021/05/15 03:46:44;;;;;;;60.67;9.93;;;;;;;;;;5073831;28;20048;-66
2021/05/15 03:49:10;;;;;;;41.72;10.25;;;;;;;;;;5051352;28;20504;-65
2021/05/15 03:51:36;;;;;;;46.35;9.13;;;;;;;;;;5053365;28;20029;-66
2021/05/15 03:54:02;;;;;;;53.50;10.25;;;;;;;;;;5053213;28;20025;-66
2021/05/15 03:56:28;;;;;;;41.92;10.27;;;;;;;;;;5052450;28;20033;-66
2021/05/15 03:58:54;;;;;;;34.08;9.40;;;;;;;;;;5053196;28;20490;-66
2021/05/15 04:01:21;;;;;;;21.60;7.78;;;;;;;;;;5051240;28;20048;-66
2021/05/15 04:03:47;;;;;;;44.95;8.25;;;;;;;;;;5052419;28;20791;-66
2021/05/15 04:06:13;;;;;;;26.38;8.88;;;;;;;;;;5051762;28;20070;-66
2021/05/15 04:08:39;;;;;;;16.27;8.82;;;;;;;;;;5052749;28;20033;-66
2021/05/15 04:11:05;;;;;;;15.57;7.38;;;;;;;;;;5052436;28;20047;-66
2021/05/15 04:18:48;;;;;;;9.07;6.90;;;;;;;;;;5054318;28;20032;-66
2021/05/15 04:21:14;;;;;;;11.85;6.82;;;;;;;;;;5072492;28;20038;-66
2021/05/15 04:23:40;;;;;;;9.50;6.65;;;;;;;;;;5085527;28;20458;-66
2021/05/15 04:26:06;;;;;;;11.93;6.43;;;;;;;;;;5091921;28;20518;-66
2021/05/15 04:28:32;;;;;;;10.98;7.00;;;;;;;;;;5092241;28;20071;-66
2021/05/15 04:30:59;;;;;;;15.02;9.18;;;;;;;;;;5092056;28;20081;-66
2021/05/15 04:33:25;;;;;;;8.93;6.03;;;;;;;;;;5091408;28;20024;-66
2021/05/15 04:35:55;;;;;;;9.38;6.18;;;;;;;;;;5092528;28;20028;-66
2021/05/15 04:38:21;;;;;;;9.45;6.28;;;;;;;;;;5092316;28;20471;-66
2021/05/15 04:40:47;;;;;;;13.18;6.40;;;;;;;;;;5080513;28;20047;-66
2021/05/15 04:43:16;;;;;;;11.27;6.90;;;;;;;;;;5071439;28;20059;-66
2021/05/15 04:45:42;;;;;;;9.30;5.20;;;;;;;;;;5072027;28;20025;-66
2021/05/15 04:48:09;;;;;;;6.85;5.38;;;;;;;;;;5072420;28;20414;-66
2021/05/15 04:50:35;;;;;;;7.22;5.03;;;;;;;;;;5071115;28;20025;-66
2021/05/15 04:53:01;;;;;;;8.25;6.22;;;;;;;;;;5071341;28;20029;-66
2021/05/15 04:55:27;;;;;;;6.35;5.07;;;;;;;;;;5071883;28;20059;-66
2021/05/15 04:57:53;;;;;;;5.13;4.43;;;;;;;;;;5070901;28;20033;-66
2021/05/15 05:00:20;;;;;;;9.52;4.90;;;;;;;;;;5071778;28;20048;-66
2021/05/15 05:02:46;;;;;;;4.93;3.90;;;;;;;;;;5071805;28;20039;-66
2021/05/15 05:05:12;;;;;;;11.40;6.60;;;;;;;;;;5070644;28;20467;-66
2021/05/15 05:07:39;;;;;;;9.27;5.80;;;;;;;;;;5071753;28;20485;-66
2021/05/15 05:10:05;;;;;;;5.65;4.05;;;;;;;;;;5071408;28;20095;-67
2021/05/15 05:12:31;;;;;;;6.93;4.97;;;;;;;;;;5070582;28;20031;-66
2021/05/15 05:14:57;;;;;;;7.55;4.80;;;;;;;;;;5071239;28;20021;-66
2021/05/15 05:17:23;;;;;;;5.30;4.30;;;;;;;;;;5072093;28;20382;-66
2021/05/15 05:19:50;;;;;;;10.13;5.30;;;;;;;;;;5069291;28;20032;-67
2021/05/15 05:22:16;;;;;;;5.53;4.85;;;;;;;;;;5070921;28;20029;-66
2021/05/15 05:24:45;;;;;;;8.23;4.90;;;;;;;;;;5091338;28;20020;-66
2021/05/15 05:27:11;;;;;;;9.23;4.60;;;;;;;;;;5090657;28;20024;-66
2021/05/15 05:29:37;;;;;;;6.20;4.03;;;;;;;;;;5091040;28;20493;-67
2021/05/15 05:32:03;;;;;;;6.43;4.13;;;;;;;;;;5092229;28;20150;-67
2021/05/15 05:34:31;;;;;;;4.22;3.63;;;;;;;;;;5089780;28;20032;-66
2021/05/15 05:36:57;;;;;;;5.72;3.63;;;;;;;;;;5091664;28;20389;-67
2021/05/15 05:39:23;;;;;;;4.95;3.88;;;;;;;;;;5091278;28;20062;-67
2021/05/15 05:41:49;;;;;;;5.70;3.92;;;;;;;;;;5070083;28;20032;-67
2021/05/15 05:44:16;;;;;;;4.55;3.50;;;;;;;;;;5070138;28;20028;-67
2021/05/15 05:46:42;;;;;;;6.80;3.50;;;;;;;;;;5064676;28;20548;-67
2021/05/15 05:49:08;;;;;;;3.97;3.50;;;;;;;;;;5054925;28;20110;-67
2021/05/15 05:51:34;;;;;;;5.72;3.72;;;;;;;;;;5057523;28;20020;-67
2021/05/15 05:54:00;;;;;;;6.88;3.70;;;;;;;;;;5070266;28;20028;-67
2021/05/15 05:56:26;;;;;;;5.10;3.38;;;;;;;;;;5070068;28;20028;-67
2021/05/15 05:58:52;;;;;;;5.28;3.90;;;;;;;;;;5070242;28;20027;-67
2021/05/15 06:01:18;;;;;;;8.15;3.78;;;;;;;;;;5070139;28;20044;-67
2021/05/15 06:03:45;;;;;;;5.65;3.85;;;;;;;;;;5069283;28;20496;-67
2021/05/15 06:06:12;;;;;;;14.15;6.75;;;;;;;;;;5070727;28;20021;-67
2021/05/15 06:08:38;;;;;;;5.43;4.20;;;;;;;;;;5070399;28;20505;-67
2021/05/15 06:11:04;;;;;;;4.15;3.60;;;;;;;;;;5070026;28;20048;-67
2021/05/15 06:13:30;;;;;;;5.80;3.55;;;;;;;;;;5069736;28;20028;-67
2021/05/15 06:15:56;;;;;;;4.65;3.70;;;;;;;;;;5070627;28;20027;-67
2021/05/15 06:18:22;;;;;;;6.57;3.38;;;;;;;;;;5069893;28;20031;-67
2021/05/15 06:20:49;;;;;;;4.57;4.00;;;;;;;;;;5070565;28;20100;-67
2021/05/15 06:23:15;;;;;;;6.93;3.90;;;;;;;;;;5078222;28;20031;-67
2021/05/15 06:25:41;;;;;;;5.18;3.10;;;;;;;;;;5090257;28;20790;-68
2021/05/15 06:28:07;;;;;;;3.92;3.30;;;;;;;;;;5091104;28;20438;-68
2021/05/15 06:30:33;;;;;;;4.22;3.15;;;;;;;;;;5090099;28;20024;-67
2021/05/15 06:32:59;;;;;;;2.90;2.70;;;;;;;;;;5089757;28;20036;-67
2021/05/15 06:35:25;;;;;;;5.38;3.00;;;;;;;;;;5090072;28;20036;-67
2021/05/15 06:37:51;;;;;;;3.63;3.30;;;;;;;;;;5090760;28;20085;-68
2021/05/15 06:40:18;;;;;;;5.82;3.10;;;;;;;;;;5081267;28;20107;-68
2021/05/15 06:42:44;;;;;;;3.90;2.97;;;;;;;;;;5052328;28;20033;-67
2021/05/15 06:45:10;;;;;;;10.95;3.15;;;;;;;;;;5050321;28;20845;-67
2021/05/15 06:47:36;;;;;;;5.40;3.00;;;;;;;;;;5049024;28;20025;-67
2021/05/15 06:50:03;;;;;;;4.13;3.05;;;;;;;;;;5050664;28;20451;-68
2021/05/15 06:52:29;;;;;;;3.90;3.15;;;;;;;;;;5050753;28;20047;-68
2021/05/15 06:54:55;;;;;;;4.03;2.90;;;;;;;;;;5050635;28;20080;-68
2021/05/15 06:57:21;;;;;;;4.97;3.30;;;;;;;;;;5054298;28;20064;-68
2021/05/15 06:59:47;;;;;;;6.30;3.35;;;;;;;;;;5050777;28;20029;-68
2021/05/15 07:02:14;;;;;;;5.22;3.05;;;;;;;;;;5053368;28;20064;-68
2021/05/15 07:04:40;;;;;;;3.70;2.90;;;;;;;;;;5054094;28;20024;-68
2021/05/15 07:07:06;;;;;;;3.92;3.00;;;;;;;;;;5053214;28;20029;-68
2021/05/15 07:09:32;;;;;;;10.75;7.75;;;;;;;;;;5053270;28;20367;-68
2021/05/15 07:11:58;;;;;;;5.93;2.55;;;;;;;;;;5053964;28;20111;-68
2021/05/15 07:14:24;;;;;;;5.22;2.50;;;;;;;;;;5053831;28;20040;-68
2021/05/15 07:16:50;;;;;;;7.82;2.58;;;;;;;;;;5068278;28;20029;-68
2021/05/15 07:19:16;;;;;;;3.65;2.90;;;;;;;;;;5053896;28;20557;-68
2021/05/15 07:21:42;;;;;;;3.38;2.72;;;;;;;;;;5053622;28;20029;-68
2021/05/15 07:24:08;;;;;;;10.23;3.05;;;;;;;;;;5082321;28;20024;-68
2021/05/15 07:26:34;;;;;;;5.35;2.90;;;;;;;;;;5094532;28;20484;-68
2021/05/15 07:29:00;;;;;;;3.20;2.50;;;;;;;;;;5092888;28;20028;-68
2021/05/15 07:31:26;;;;;;;3.88;2.58;;;;;;;;;;5092787;28;20035;-69
2021/05/15 07:33:52;;;;;;;4.30;2.35;;;;;;;;;;5093524;28;20472;-70
2021/05/15 07:36:19;;;;;;;5.65;2.78;;;;;;;;;;5093644;28;20493;-69
2021/05/15 07:38:47;;;;;;;2.80;2.55;;;;;;;;;;5092720;28;20117;-69
2021/05/15 07:41:13;;;;;;;14.63;3.58;;;;;;;;;;5078278;28;20033;-69
2021/05/15 07:43:40;;;;;;;4.65;2.80;;;;;;;;;;5073360;28;20032;-69
2021/05/15 07:46:06;;;;;;;3.13;2.15;;;;;;;;;;5072457;28;20062;-69
2021/05/15 07:48:39;;;;;;;3.55;2.50;;;;;;;;;;5071842;28;20218;-70
2021/05/15 07:51:08;;;;;;;7.22;2.65;;;;;;;;;;5073479;28;20016;-69
2021/05/15 07:53:34;;;;;;;9.73;2.65;;;;;;;;;;5072587;28;20039;-69
2021/05/15 07:56:00;;;;;;;5.32;2.92;;;;;;;;;;5072990;28;20203;-70
2021/05/15 07:58:26;;;;;;;3.45;2.83;;;;;;;;;;5073260;28;20031;-70
2021/05/15 08:00:52;;;;;;;4.07;2.45;;;;;;;;;;5072223;28;20119;-70
2021/05/15 08:03:18;;;;;;;11.60;2.80;;;;;;;;;;5055203;28;20024;-70
2021/05/15 08:05:44;;;;;;;4.07;2.30;;;;;;;;;;5052170;28;20029;-67
2021/05/15 08:08:10;;;;;;;5.05;2.72;;;;;;;;;;5050937;28;20043;-69
2021/05/15 08:10:36;;;;;;;11.85;2.60;;;;;;;;;;5052380;28;20021;-67
2021/05/15 08:13:02;;;;;;;13.25;2.92;;;;;;;;;;5052313;28;20040;-68
2021/05/15 08:15:28;;;;;;;4.95;2.55;;;;;;;;;;5051787;28;20048;-67
2021/05/15 08:17:55;;;;;;;4.15;2.10;;;;;;;;;;5062559;28;20040;-70
2021/05/15 08:20:21;;;;;;;3.67;2.38;;;;;;;;;;5073028;28;20497;-70
2021/05/15 08:22:47;;;;;;;3.27;2.30;;;;;;;;;;5076983;28;20085;-70
2021/05/15 08:25:13;;;;;;;3.58;2.60;;;;;;;;;;5090964;28;20035;-70
2021/05/15 08:27:40;;;;;;;3.95;2.63;;;;;;;;;;5093018;28;20043;-70
2021/05/15 08:30:07;;;;;;;;;;;;;;;;;;5093292;28;20034;-70
2021/05/15 08:32:33;;;;;;;3.25;2.70;;;;;;;;;;5091737;28;19915;-70
2021/05/15 08:35:00;;;;;;;5.25;2.80;;;;;;;;;;5092283;28;20032;-70
2021/05/15 08:37:26;;;;;;;4.10;2.60;;;;;;;;;;5092515;28;20335;-70
2021/05/15 08:39:52;;;;;;;5.03;2.08;;;;;;;;;;5087668;28;20811;-68
2021/05/15 08:42:19;;;;;;;3.30;2.83;;;;;;;;;;5072436;28;20031;-67
2021/05/15 08:44:46;;;;;;;3.92;2.80;;;;;;;;;;5072289;28;20028;-67
2021/05/15 08:47:12;;;;;;;;;;;;;;;;;;5070469;28;20047;-68
2021/05/15 08:49:38;;;;;;;2.67;2.47;;;;;;;;;;5071691;28;19904;-68
2021/05/15 08:52:04;;;;;;;9.45;4.22;;;;;;;;;;5071072;28;20029;-68
2021/05/15 08:54:30;;;;;;;7.65;3.00;;;;;;;;;;5070806;28;20032;-70
2021/05/15 08:56:56;;;;;;;3.65;2.58;;;;;;;;;;5072040;28;20029;-68
2021/05/15 08:59:22;;;;;;;42.08;31.88;;;;;;;;;;5070754;28;20443;-70
2021/05/15 09:01:48;;;;;;;14.48;8.15;;;;;;;;;;5053765;28;20402;-70
2021/05/15 09:04:14;;;;;;;22.92;4.95;;;;;;;;;;5051469;28;20021;-69
2021/05/15 09:06:41;;;;;;;5.93;2.90;;;;;;;;;;5051868;28;20116;-69
2021/05/15 09:09:07;;;;;;;3.70;2.85;;;;;;;;;;5050966;28;20036;-69
2021/05/15 09:11:33;;;;;;;4.78;3.00;;;;;;;;;;5051708;28;20379;-69
2021/05/15 09:14:00;;;;;;;6.20;2.90;;;;;;;;;;5051504;28;20070;-69
2021/05/15 09:16:26;;;;;;;7.18;3.20;;;;;;;;;;5056341;28;20477;-70
2021/05/15 09:18:52;;;;;;;4.45;3.05;;;;;;;;;;5069778;28;20039;-70
2021/05/15 09:21:19;;;;;;;4.05;2.85;;;;;;;;;;5071601;28;20025;-70
2021/05/15 09:23:46;;;;;;;4.68;3.15;;;;;;;;;;5083016;28;20036;-70
2021/05/15 09:26:22;;;;;;;5.40;2.55;;;;;;;;;;5091864;28;20111;-70
2021/05/15 09:28:49;;;;;;;10.13;3.10;;;;;;;;;;5092138;28;20024;-68
2021/05/15 09:31:18;;;;;;;7.13;4.93;;;;;;;;;;5090878;28;20422;-68
2021/05/15 09:33:45;;;;;;;5.32;2.50;;;;;;;;;;5091723;28;20027;-68
2021/05/15 09:36:12;;;;;;;3.85;2.30;;;;;;;;;;5091901;28;20035;-68
2021/05/15 09:38:38;;;;;;;;;;;;;;;;;;5091368;28;20135;-68
2021/05/15 09:41:04;;;;;;;2.50;2.23;;;;;;;;;;5076934;28;20398;-68
2021/05/15 09:43:30;;;;;;;3.22;1.92;;;;;;;;;;5071055;28;20036;-68
2021/05/15 09:45:56;;;;;;;4.28;1.95;;;;;;;;;;5069640;28;20137;-68
2021/05/15 09:48:38;;;;;;;2.20;1.67;;;;;;;;;;5071630;28;20025;-68
2021/05/15 09:51:14;;;;;;;2.20;1.83;;;;;;;;;;5069354;28;20116;-68
2021/05/15 09:53:40;;;;;;;3.97;2.20;;;;;;;;;;5067003;28;20040;-69
2021/05/15 09:56:06;;;;;;;4.07;2.58;;;;;;;;;;5070069;28;20028;-70
2021/05/15 09:58:32;;;;;;;2.97;2.00;;;;;;;;;;5067827;28;20095;-70
2021/05/15 10:00:58;;;;;;;2.50;2.27;;;;;;;;;;5069728;28;20040;-70
2021/05/15 10:03:25;;;;;;;3.07;2.47;;;;;;;;;;5070832;28;20064;-69
2021/05/15 10:06:04;;;;;;;3.15;2.50;;;;;;;;;;5069455;28;20534;-69
2021/05/15 10:08:30;;;;;;;3.97;2.50;;;;;;;;;;5070780;28;20050;-69
2021/05/15 10:10:57;;;;;;;8.75;2.20;;;;;;;;;;5071199;28;20474;-70
2021/05/15 10:13:23;;;;;;;3.80;2.10;;;;;;;;;;5051460;28;20040;-70
2021/05/15 10:15:49;;;;;;;5.43;3.55;;;;;;;;;;5052137;28;20263;-70
2021/05/15 10:18:16;;;;;;;4.00;2.22;;;;;;;;;;5057204;28;20017;-70
2021/05/15 10:20:42;;;;;;;9.35;3.10;;;;;;;;;;5050729;28;20104;-70
2021/05/15 10:23:21;;;;;;;4.50;2.40;;;;;;;;;;5073378;28;20103;-70
2021/05/15 10:25:48;;;;;;;3.17;2.17;;;;;;;;;;5050345;28;20052;-70
2021/05/15 10:28:24;;;;;;;3.87;2.10;;;;;;;;;;5048074;28;20472;-70
2021/05/15 10:30:50;;;;;;;;;;;;;;;;;;5054055;28;20267;-70
2021/05/15 10:33:16;;;;;;;25.42;3.92;;;;;;;;;;5062521;28;19918;-70
2021/05/15 10:35:44;;;;;;;7.27;2.50;;;;;;;;;;5073313;28;20028;-70
2021/05/15 10:38:12;;;;;;;11.57;2.83;;;;;;;;;;5074729;28;20206;-70
2021/05/15 10:40:42;;;;;;;2.75;1.30;;;;;;;;;;5074433;28;20508;-70
2021/05/15 10:43:08;;;;;;;10.45;3.00;;;;;;;;;;5073191;28;20044;-71
2021/05/15 10:45:34;;;;;;;3.77;1.47;;;;;;;;;;5074002;28;20047;-70
2021/05/15 10:48:10;;;;;;;2.10;1.27;;;;;;;;;;5074309;28;20513;-70
2021/05/15 10:50:47;;;;;;;3.08;1.40;;;;;;;;;;5073397;28;20052;-70
2021/05/15 10:53:13;;;;;;;;;;;;;;;;;;5073574;28;20024;-71
2021/05/15 10:55:39;;;;;;;2.40;1.33;;;;;;;;;;5073849;28;19905;-70
2021/05/15 10:58:09;;;;;;;2.03;1.35;;;;;;;;;;5073373;28;20056;-71
2021/05/15 11:00:35;;;;;;;2.15;1.50;;;;;;;;;;5072850;28;20783;-70
2021/05/15 11:03:01;;;;;;;1.75;1.42;;;;;;;;;;5055234;28;20029;-70
2021/05/15 11:05:30;;;;;;;2.88;2.10;;;;;;;;;;5053110;28;20025;-70
2021/05/15 11:07:56;;;;;;;4.00;1.80;;;;;;;;;;5054124;28;20025;-69
2021/05/15 11:10:23;;;;;;;2.13;1.90;;;;;;;;;;5054007;28;20479;-70
2021/05/15 11:12:51;;;;;;;2.10;1.90;;;;;;;;;;5052803;28;20040;-70
2021/05/15 11:15:18;;;;;;;1.73;1.50;;;;;;;;;;5068943;28;20057;-70
2021/05/15 11:17:45;;;;;;;2.20;1.95;;;;;;;;;;5053863;28;20057;-69
2021/05/15 11:20:15;;;;;;;4.82;2.10;;;;;;;;;;5052754;28;20025;-69
2021/05/15 11:22:44;;;;;;;6.60;2.88;;;;;;;;;;5062646;28;20453;-69
2021/05/15 11:25:13;;;;;;;3.10;2.42;;;;;;;;;;5092922;28;20028;-69
2021/05/15 11:27:45;;;;;;;3.83;2.38;;;;;;;;;;5093017;28;20084;-69
2021/05/15 11:30:13;;;;;;;6.40;2.55;;;;;;;;;;5094397;28;20052;-69
2021/05/15 11:32:39;;;;;;;11.50;3.75;;;;;;;;;;5092639;28;20024;-69
2021/05/15 11:35:06;;;;;;;2.33;2.13;;;;;;;;;;5091834;28;20028;-69
2021/05/15 11:37:33;;;;;;;7.53;3.07;;;;;;;;;;5094312;28;20876;-69
2021/05/15 11:39:59;;;;;;;5.22;2.70;;;;;;;;;;5088901;28;20758;-70
2021/05/15 11:42:31;;;;;;;3.95;2.78;;;;;;;;;;5072029;28;20119;-70
2021/05/15 11:44:58;;;;;;;3.75;3.00;;;;;;;;;;5073471;28;20033;-70
2021/05/15 11:47:24;;;;;;;3.53;2.35;;;;;;;;;;5071546;28;20028;-70
2021/05/15 11:50:00;;;;;;;3.85;2.50;;;;;;;;;;5072736;28;20098;-70
2021/05/15 11:52:33;;;;;;;4.75;2.60;;;;;;;;;;5073204;28;20028;-70
2021/05/15 11:54:59;;;;;;;5.25;2.08;;;;;;;;;;5073149;28;20056;-69
2021/05/15 11:57:26;;;;;;;4.72;3.00;;;;;;;;;;5071310;28;20544;-70
2021/05/15 11:59:53;;;;;;;2.75;2.50;;;;;;;;;;5072413;28;20048;-70
2021/05/15 12:02:19;;;;;;;4.35;3.00;;;;;;;;;;5071966;28;20517;-71
2021/05/15 12:04:45;;;;;;;6.13;3.08;;;;;;;;;;5072209;28;20467;-71
2021/05/15 12:07:14;;;;;;;5.57;3.85;;;;;;;;;;5072823;28;20024;-71
2021/05/15 12:09:40;;;;;;;5.50;3.90;;;;;;;;;;5071628;28;20033;-71
2021/05/15 12:12:08;;;;;;;2.92;2.40;;;;;;;;;;5072303;28;20075;-70
2021/05/15 12:14:34;;;;;;;7.72;3.00;;;;;;;;;;5072323;28;20047;-71
2021/05/15 12:17:07;;;;;;;2.58;2.35;;;;;;;;;;5071862;28;20020;-71
2021/05/15 12:19:33;;;;;;;4.65;3.08;;;;;;;;;;5069730;28;20640;-71
2021/05/15 12:22:00;;;;;;;3.38;2.10;;;;;;;;;;5072995;28;20029;-71
2021/05/15 12:24:37;;;;;;;4.72;3.22;;;;;;;;;;5091642;28;20043;-71
2021/05/15 12:27:15;;;;;;;5.68;2.33;;;;;;;;;;5091974;28;20024;-71
2021/05/15 12:29:41;;;;;;;3.25;2.50;;;;;;;;;;5092640;28;20051;-71
2021/05/15 12:32:08;;;;;;;5.90;2.17;;;;;;;;;;5092905;28;20081;-71
2021/05/15 12:34:34;;;;;;;2.55;2.20;;;;;;;;;;5052891;28;20349;-71
2021/05/15 12:37:00;;;;;;;11.05;2.63;;;;;;;;;;5052240;28;20029;-71
2021/05/15 12:39:34;;;;;;;3.97;2.05;;;;;;;;;;5051597;28;20021;-71
2021/05/15 12:42:00;;;;;;;1.98;1.80;;;;;;;;;;5071118;28;20108;-71
2021/05/15 12:44:35;;;;;;;2.70;2.50;;;;;;;;;;5071555;28;20025;-71
2021/05/15 12:47:01;;;;;;;2.17;2.03;;;;;;;;;;5070354;28;20099;-71
2021/05/15 12:49:27;;;;;;;14.35;2.95;;;;;;;;;;5070544;28;20033;-71
2021/05/15 12:51:55;;;;;;;2.17;2.00;;;;;;;;;;5070970;28;20481;-71
2021/05/15 12:54:22;;;;;;;2.85;2.53;;;;;;;;;;5071731;28;20042;-71
2021/05/15 12:56:51;;;;;;;3.53;2.97;;;;;;;;;;5071119;28;20079;-71
2021/05/15 12:59:38;;;;;;;2.50;1.48;;;;;;;;;;5071676;28;20090;-71
2021/05/15 13:02:07;;;;;;;2.45;1.80;;;;;;;;;;5070417;28;20040;-71
2021/05/15 13:04:34;;;;;;;5.18;2.10;;;;;;;;;;5050073;28;20040;-71
2021/05/15 13:07:00;;;;;;;4.53;2.45;;;;;;;;;;5052034;28;20083;-71
2021/05/15 13:09:27;;;;;;;4.78;2.28;;;;;;;;;;5051287;28;20025;-71
2021/05/15 13:11:53;;;;;;;2.58;1.52;;;;;;;;;;5050509;28;20033;-71
2021/05/15 13:14:21;;;;;;;2.05;1.90;;;;;;;;;;5067188;28;20044;-71
2021/05/15 13:16:47;;;;;;;4.07;2.65;;;;;;;;;;5066864;28;20096;-71
2021/05/15 13:19:13;;;;;;;3.20;1.98;;;;;;;;;;5050175;28;20041;-71
2021/05/15 13:21:39;;;;;;;3.80;1.80;;;;;;;;;;5051841;28;20063;-71
2021/05/15 13:24:06;;;;;;;1.70;1.60;;;;;;;;;;5084094;28;20028;-71
2021/05/15 13:26:32;;;;;;;1.75;1.40;;;;;;;;;;5089921;28;20030;-71
2021/05/15 13:28:58;;;;;;;9.45;2.65;;;;;;;;;;5091585;28;20124;-71
2021/05/15 13:31:24;;;;;;;2.40;2.28;;;;;;;;;;5091767;28;20058;-71
2021/05/15 13:33:50;;;;;;;9.10;2.30;;;;;;;;;;5090417;28;20028;-71
2021/05/15 13:36:16;;;;;;;15.13;8.90;;;;;;;;;;5091205;28;20020;-71
2021/05/15 13:38:42;;;;;;;12.27;8.13;;;;;;;;;;5090309;28;20023;-71
2021/05/15 13:41:09;;;;;;;32.95;23.42;;;;;;;;;;5075556;28;20031;-71
2021/05/15 13:43:35;;;;;;;10.43;5.95;;;;;;;;;;5069663;28;20071;-71
2021/05/15 13:46:01;;;;;;;24.38;16.85;;;;;;;;;;5069991;28;20104;-71
2021/05/15 13:48:32;;;;;;;10.45;8.60;;;;;;;;;;5070273;28;20028;-71
2021/05/15 13:51:02;;;;;;;2.95;2.65;;;;;;;;;;5070743;28;20020;-71
2021/05/15 13:53:28;;;;;;;4.97;3.35;;;;;;;;;;5070737;28;20032;-71
2021/05/15 13:55:54;;;;;;;11.35;4.85;;;;;;;;;;5069387;28;20028;-71
2021/05/15 13:58:20;;;;;;;8.15;4.18;;;;;;;;;;5069605;28;20012;-71
2021/05/15 14:00:46;;;;;;;5.95;4.05;;;;;;;;;;5069346;28;20436;-71
2021/05/15 14:03:12;;;;;;;54.45;6.38;;;;;;;;;;5069649;28;20028;-71
2021/05/15 14:05:38;;;;;;;6.95;4.32;;;;;;;;;;5069076;28;20055;-71
2021/05/15 14:08:04;;;;;;;39.08;5.65;;;;;;;;;;5070912;28;20100;-71
2021/05/15 14:10:30;;;;;;;5.72;3.35;;;;;;;;;;5067836;28;20379;-71
2021/05/15 14:12:56;;;;;;;3.70;2.70;;;;;;;;;;5069343;28;20024;-71
2021/05/15 14:15:22;;;;;;;7.13;3.97;;;;;;;;;;5070825;28;20029;-71
2021/05/15 14:17:48;;;;;;;8.68;4.53;;;;;;;;;;5069739;28;20032;-71
2021/05/15 14:20:15;;;;;;;17.80;8.75;;;;;;;;;;5070715;28;20060;-71
2021/05/15 14:22:41;;;;;;;27.77;12.48;;;;;;;;;;5074015;28;20481;-71
2021/05/15 14:25:07;;;;;;;24.33;12.15;;;;;;;;;;5089637;28;20071;-71
2021/05/15 14:27:33;;;;;;;28.95;15.82;;;;;;;;;;5073694;28;20032;-71
2021/05/15 14:30:00;;;;;;;6.10;3.80;;;;;;;;;;5070284;28;20024;-70
2021/05/15 14:32:27;;;;;;;6.13;3.33;;;;;;;;;;5068066;28;20024;-70
2021/05/15 14:34:53;;;;;;;8.38;4.03;;;;;;;;;;5069245;28;20485;-70
2021/05/15 14:37:20;;;;;;;12.02;6.32;;;;;;;;;;5070661;28;20013;-70
2021/05/15 14:39:46;;;;;;;9.63;4.45;;;;;;;;;;5068419;28;20179;-70
2021/05/15 14:42:15;;;;;;;18.67;10.23;;;;;;;;;;5070483;28;20367;-70